sensor_id;sensor_type;location;lat;lon;timestamp;P1;durP1;ratioP1;P2;durP2;ratioP2
840;SDS011;406;48.566;13.450;2022-11-09T00:01:41;14.07;;;10.97;;
840;SDS011;406;48.566;13.450;2022-11-09T00:04:07;15.60;;;11.33;;
840;SDS011;406;48.566;13.450;2022-11-09T00:06:33;15.90;;;12.27;;
840;SDS011;406;48.566;13.450;2022-11-09T00:08:59;16.37;;;12.43;;
840;SDS011;406;48.566;13.450;2022-11-09T00:11:26;20.30;;;14.23;;
840;SDS011;406;48.566;13.450;2022-11-09T00:13:51;18.63;;;12.03;;
840;SDS011;406;48.566;13.450;2022-11-09T00:16:17;21.77;;;13.90;;
840;SDS011;406;48.566;13.450;2022-11-09T00:18:44;16.40;;;13.60;;
840;SDS011;406;48.566;13.450;2022-11-09T00:21:14;27.30;;;14.63;;
840;SDS011;406;48.566;13.450;2022-11-09T00:23:40;20.37;;;14.10;;
840;SDS011;406;48.566;13.450;2022-11-09T00:26:06;22.83;;;14.10;;
840;SDS011;406;48.566;13.450;2022-11-09T00:28:33;28.63;;;13.67;;
840;SDS011;406;48.566;13.450;2022-11-09T00:30:59;22.43;;;13.97;;
840;SDS011;406;48.566;13.450;2022-11-09T00:33:25;19.73;;;13.83;;
840;SDS011;406;48.566;13.450;2022-11-09T00:35:51;20.13;;;13.40;;
840;SDS011;406;48.566;13.450;2022-11-09T00:38:16;21.67;;;14.80;;
840;SDS011;406;48.566;13.450;2022-11-09T00:40:42;19.10;;;13.90;;
840;SDS011;406;48.566;13.450;2022-11-09T00:43:08;19.67;;;12.83;;
840;SDS011;406;48.566;13.450;2022-11-09T00:45:34;26.23;;;14.70;;
840;SDS011;406;48.566;13.450;2022-11-09T00:47:59;21.10;;;13.70;;
840;SDS011;406;48.566;13.450;2022-11-09T00:50:25;20.63;;;15.67;;
840;SDS011;406;48.566;13.450;2022-11-09T00:52:50;21.40;;;14.50;;
840;SDS011;406;48.566;13.450;2022-11-09T00:55:16;17.27;;;12.27;;
840;SDS011;406;48.566;13.450;2022-11-09T00:57:41;18.67;;;12.70;;
840;SDS011;406;48.566;13.450;2022-11-09T01:00:07;20.73;;;12.83;;
840;SDS011;406;48.566;13.450;2022-11-09T01:02:32;19.10;;;14.13;;
840;SDS011;406;48.566;13.450;2022-11-09T01:04:58;16.07;;;12.07;;
840;SDS011;406;48.566;13.450;2022-11-09T01:07:24;14.40;;;11.77;;
840;SDS011;406;48.566;13.450;2022-11-09T01:09:50;13.73;;;11.10;;
840;SDS011;406;48.566;13.450;2022-11-09T01:12:15;13.63;;;10.63;;
840;SDS011;406;48.566;13.450;2022-11-09T01:14:41;13.97;;;10.63;;
840;SDS011;406;48.566;13.450;2022-11-09T01:17:06;13.90;;;10.30;;
840;SDS011;406;48.566;13.450;2022-11-09T01:19:32;17.33;;;11.87;;
840;SDS011;406;48.566;13.450;2022-11-09T01:21:57;14.20;;;11.03;;
840;SDS011;406;48.566;13.450;2022-11-09T01:24:23;14.30;;;10.70;;
840;SDS011;406;48.566;13.450;2022-11-09T01:26:48;15.33;;;10.13;;
840;SDS011;406;48.566;13.450;2022-11-09T01:29:14;13.57;;;10.90;;
840;SDS011;406;48.566;13.450;2022-11-09T01:31:39;14.93;;;10.40;;
840;SDS011;406;48.566;13.450;2022-11-09T01:34:05;15.67;;;11.03;;
840;SDS011;406;48.566;13.450;2022-11-09T01:36:31;14.27;;;10.87;;
840;SDS011;406;48.566;13.450;2022-11-09T01:38:59;13.60;;;10.97;;
840;SDS011;406;48.566;13.450;2022-11-09T01:41:26;17.27;;;11.30;;
840;SDS011;406;48.566;13.450;2022-11-09T01:44:03;16.40;;;11.67;;
840;SDS011;406;48.566;13.450;2022-11-09T01:46:52;14.67;;;10.40;;
840;SDS011;406;48.566;13.450;2022-11-09T01:51:51;14.33;;;11.73;;
840;SDS011;406;48.566;13.450;2022-11-09T01:54:21;15.13;;;10.83;;
840;SDS011;406;48.566;13.450;2022-11-09T01:56:50;15.27;;;10.30;;
840;SDS011;406;48.566;13.450;2022-11-09T01:59:21;18.10;;;12.10;;
840;SDS011;406;48.566;13.450;2022-11-09T02:01:50;15.80;;;11.50;;
840;SDS011;406;48.566;13.450;2022-11-09T02:04:21;16.67;;;10.40;;
840;SDS011;406;48.566;13.450;2022-11-09T02:06:50;15.33;;;10.20;;
840;SDS011;406;48.566;13.450;2022-11-09T02:12:04;20.80;;;11.93;;
840;SDS011;406;48.566;13.450;2022-11-09T02:14:31;15.50;;;10.87;;
840;SDS011;406;48.566;13.450;2022-11-09T02:16:57;27.50;;;11.57;;
840;SDS011;406;48.566;13.450;2022-11-09T02:19:22;17.03;;;11.67;;
840;SDS011;406;48.566;13.450;2022-11-09T02:21:48;19.97;;;12.40;;
840;SDS011;406;48.566;13.450;2022-11-09T02:24:14;26.10;;;11.30;;
840;SDS011;406;48.566;13.450;2022-11-09T02:26:44;16.90;;;9.97;;
840;SDS011;406;48.566;13.450;2022-11-09T02:29:12;14.93;;;10.50;;
840;SDS011;406;48.566;13.450;2022-11-09T02:31:41;18.27;;;9.67;;
840;SDS011;406;48.566;13.450;2022-11-09T02:34:14;28.13;;;9.67;;
840;SDS011;406;48.566;13.450;2022-11-09T02:36:41;41.27;;;11.43;;
840;SDS011;406;48.566;13.450;2022-11-09T02:39:12;46.80;;;11.00;;
840;SDS011;406;48.566;13.450;2022-11-09T02:41:41;16.53;;;9.57;;
840;SDS011;406;48.566;13.450;2022-11-09T02:44:09;14.93;;;10.33;;
840;SDS011;406;48.566;13.450;2022-11-09T02:46:35;20.83;;;10.03;;
840;SDS011;406;48.566;13.450;2022-11-09T02:49:01;15.40;;;10.53;;
840;SDS011;406;48.566;13.450;2022-11-09T02:51:28;37.63;;;10.50;;
840;SDS011;406;48.566;13.450;2022-11-09T02:53:53;45.37;;;12.03;;
840;SDS011;406;48.566;13.450;2022-11-09T02:56:20;21.13;;;11.30;;
840;SDS011;406;48.566;13.450;2022-11-09T02:58:46;20.03;;;13.90;;
840;SDS011;406;48.566;13.450;2022-11-09T03:01:11;32.70;;;10.83;;
840;SDS011;406;48.566;13.450;2022-11-09T03:03:37;35.60;;;12.47;;
840;SDS011;406;48.566;13.450;2022-11-09T03:06:03;121.57;;;19.30;;
840;SDS011;406;48.566;13.450;2022-11-09T03:08:30;30.20;;;11.97;;
840;SDS011;406;48.566;13.450;2022-11-09T03:10:55;16.67;;;11.00;;
840;SDS011;406;48.566;13.450;2022-11-09T03:13:23;51.63;;;14.07;;
840;SDS011;406;48.566;13.450;2022-11-09T03:15:49;14.97;;;11.00;;
840;SDS011;406;48.566;13.450;2022-11-09T03:18:14;16.03;;;10.83;;
840;SDS011;406;48.566;13.450;2022-11-09T03:20:40;12.63;;;9.60;;
840;SDS011;406;48.566;13.450;2022-11-09T03:23:06;18.27;;;10.20;;
840;SDS011;406;48.566;13.450;2022-11-09T03:25:32;22.57;;;9.93;;
840;SDS011;406;48.566;13.450;2022-11-09T03:27:59;15.50;;;10.40;;
840;SDS011;406;48.566;13.450;2022-11-09T03:30:26;17.33;;;10.27;;
840;SDS011;406;48.566;13.450;2022-11-09T03:32:59;13.87;;;8.93;;
840;SDS011;406;48.566;13.450;2022-11-09T03:35:26;14.17;;;10.63;;
840;SDS011;406;48.566;13.450;2022-11-09T03:37:51;21.37;;;10.60;;
840;SDS011;406;48.566;13.450;2022-11-09T03:40:18;20.40;;;9.27;;
840;SDS011;406;48.566;13.450;2022-11-09T03:42:45;21.00;;;11.43;;
840;SDS011;406;48.566;13.450;2022-11-09T03:45:12;20.77;;;9.90;;
840;SDS011;406;48.566;13.450;2022-11-09T03:47:44;15.20;;;11.70;;
840;SDS011;406;48.566;13.450;2022-11-09T03:50:10;11.40;;;8.27;;
840;SDS011;406;48.566;13.450;2022-11-09T03:52:36;13.80;;;9.67;;
840;SDS011;406;48.566;13.450;2022-11-09T03:55:03;11.00;;;8.20;;
840;SDS011;406;48.566;13.450;2022-11-09T03:57:29;11.20;;;7.53;;
840;SDS011;406;48.566;13.450;2022-11-09T03:59:54;8.10;;;7.10;;
840;SDS011;406;48.566;13.450;2022-11-09T04:02:20;9.50;;;7.73;;
840;SDS011;406;48.566;13.450;2022-11-09T04:04:45;9.90;;;7.57;;
840;SDS011;406;48.566;13.450;2022-11-09T04:07:11;13.53;;;7.20;;
840;SDS011;406;48.566;13.450;2022-11-09T04:09:36;11.20;;;8.23;;
840;SDS011;406;48.566;13.450;2022-11-09T04:12:02;11.70;;;7.43;;
840;SDS011;406;48.566;13.450;2022-11-09T04:14:28;14.30;;;8.70;;
840;SDS011;406;48.566;13.450;2022-11-09T04:16:53;10.37;;;8.23;;
840;SDS011;406;48.566;13.450;2022-11-09T04:19:19;11.40;;;7.23;;
840;SDS011;406;48.566;13.450;2022-11-09T04:21:44;13.20;;;8.43;;
840;SDS011;406;48.566;13.450;2022-11-09T04:24:10;9.20;;;6.93;;
840;SDS011;406;48.566;13.450;2022-11-09T04:26:35;12.00;;;8.13;;
840;SDS011;406;48.566;13.450;2022-11-09T04:29:01;13.10;;;9.40;;
840;SDS011;406;48.566;13.450;2022-11-09T04:31:26;11.63;;;7.20;;
840;SDS011;406;48.566;13.450;2022-11-09T04:33:52;15.10;;;7.80;;
840;SDS011;406;48.566;13.450;2022-11-09T04:36:17;11.80;;;6.90;;
840;SDS011;406;48.566;13.450;2022-11-09T04:38:43;8.83;;;6.83;;
840;SDS011;406;48.566;13.450;2022-11-09T04:41:08;7.60;;;6.20;;
840;SDS011;406;48.566;13.450;2022-11-09T04:43:34;9.93;;;6.63;;
840;SDS011;406;48.566;13.450;2022-11-09T04:45:59;8.63;;;7.07;;
840;SDS011;406;48.566;13.450;2022-11-09T04:48:26;8.83;;;7.00;;
840;SDS011;406;48.566;13.450;2022-11-09T04:50:57;7.30;;;6.43;;
840;SDS011;406;48.566;13.450;2022-11-09T04:53:23;8.50;;;6.43;;
840;SDS011;406;48.566;13.450;2022-11-09T04:55:49;9.33;;;8.10;;
840;SDS011;406;48.566;13.450;2022-11-09T04:58:15;8.27;;;6.40;;
840;SDS011;406;48.566;13.450;2022-11-09T05:00:40;10.57;;;7.57;;
840;SDS011;406;48.566;13.450;2022-11-09T05:03:06;9.17;;;6.33;;
840;SDS011;406;48.566;13.450;2022-11-09T05:05:34;10.63;;;8.03;;
840;SDS011;406;48.566;13.450;2022-11-09T05:08:01;11.10;;;7.80;;
840;SDS011;406;48.566;13.450;2022-11-09T05:10:27;9.13;;;7.50;;
840;SDS011;406;48.566;13.450;2022-11-09T05:12:56;11.57;;;8.10;;
840;SDS011;406;48.566;13.450;2022-11-09T05:15:31;8.27;;;5.97;;
840;SDS011;406;48.566;13.450;2022-11-09T05:17:58;7.83;;;6.57;;
840;SDS011;406;48.566;13.450;2022-11-09T05:20:23;8.23;;;6.90;;
840;SDS011;406;48.566;13.450;2022-11-09T05:22:50;9.87;;;7.23;;
840;SDS011;406;48.566;13.450;2022-11-09T05:25:34;10.77;;;8.07;;
840;SDS011;406;48.566;13.450;2022-11-09T05:28:00;10.70;;;7.33;;
840;SDS011;406;48.566;13.450;2022-11-09T05:30:25;9.47;;;7.67;;
840;SDS011;406;48.566;13.450;2022-11-09T05:32:50;7.47;;;5.90;;
840;SDS011;406;48.566;13.450;2022-11-09T05:35:16;7.60;;;5.93;;
840;SDS011;406;48.566;13.450;2022-11-09T05:37:44;8.53;;;7.27;;
840;SDS011;406;48.566;13.450;2022-11-09T05:40:11;9.57;;;7.50;;
840;SDS011;406;48.566;13.450;2022-11-09T05:42:40;9.90;;;6.80;;
840;SDS011;406;48.566;13.450;2022-11-09T05:45:08;11.30;;;8.63;;
840;SDS011;406;48.566;13.450;2022-11-09T05:47:39;11.47;;;9.30;;
840;SDS011;406;48.566;13.450;2022-11-09T05:50:06;10.37;;;7.00;;
840;SDS011;406;48.566;13.450;2022-11-09T05:52:32;10.73;;;8.30;;
840;SDS011;406;48.566;13.450;2022-11-09T05:54:58;15.77;;;9.20;;
840;SDS011;406;48.566;13.450;2022-11-09T05:57:25;9.10;;;7.70;;
840;SDS011;406;48.566;13.450;2022-11-09T05:59:51;8.53;;;7.47;;
840;SDS011;406;48.566;13.450;2022-11-09T06:02:16;9.30;;;7.70;;
840;SDS011;406;48.566;13.450;2022-11-09T06:04:42;11.40;;;8.17;;
840;SDS011;406;48.566;13.450;2022-11-09T06:07:07;9.70;;;7.60;;
840;SDS011;406;48.566;13.450;2022-11-09T06:09:32;8.83;;;7.43;;
840;SDS011;406;48.566;13.450;2022-11-09T06:11:58;8.50;;;7.60;;
840;SDS011;406;48.566;13.450;2022-11-09T06:14:23;10.60;;;8.03;;
840;SDS011;406;48.566;13.450;2022-11-09T06:16:49;10.97;;;7.83;;
840;SDS011;406;48.566;13.450;2022-11-09T06:19:14;8.87;;;7.97;;
840;SDS011;406;48.566;13.450;2022-11-09T06:21:40;8.63;;;7.57;;
840;SDS011;406;48.566;13.450;2022-11-09T06:24:05;10.17;;;7.50;;
840;SDS011;406;48.566;13.450;2022-11-09T06:26:31;9.27;;;7.30;;
840;SDS011;406;48.566;13.450;2022-11-09T06:28:57;11.07;;;7.23;;
840;SDS011;406;48.566;13.450;2022-11-09T06:31:22;13.17;;;10.10;;
840;SDS011;406;48.566;13.450;2022-11-09T06:33:48;8.80;;;6.57;;
840;SDS011;406;48.566;13.450;2022-11-09T06:36:13;11.20;;;8.23;;
840;SDS011;406;48.566;13.450;2022-11-09T06:38:39;10.90;;;7.80;;
840;SDS011;406;48.566;13.450;2022-11-09T06:41:04;10.20;;;6.67;;
840;SDS011;406;48.566;13.450;2022-11-09T06:43:30;7.67;;;6.87;;
840;SDS011;406;48.566;13.450;2022-11-09T06:45:56;9.93;;;7.47;;
840;SDS011;406;48.566;13.450;2022-11-09T06:48:22;10.77;;;7.27;;
840;SDS011;406;48.566;13.450;2022-11-09T06:50:48;9.53;;;7.47;;
840;SDS011;406;48.566;13.450;2022-11-09T06:53:14;9.47;;;6.77;;
840;SDS011;406;48.566;13.450;2022-11-09T06:55:41;9.70;;;6.40;;
840;SDS011;406;48.566;13.450;2022-11-09T06:58:10;11.37;;;8.20;;
840;SDS011;406;48.566;13.450;2022-11-09T07:00:38;9.23;;;7.07;;
840;SDS011;406;48.566;13.450;2022-11-09T07:03:04;10.27;;;7.13;;
840;SDS011;406;48.566;13.450;2022-11-09T07:05:29;9.70;;;7.67;;
840;SDS011;406;48.566;13.450;2022-11-09T07:07:55;10.77;;;6.30;;
840;SDS011;406;48.566;13.450;2022-11-09T07:10:21;7.10;;;5.43;;
840;SDS011;406;48.566;13.450;2022-11-09T07:12:46;8.20;;;6.13;;
840;SDS011;406;48.566;13.450;2022-11-09T07:15:12;7.87;;;6.30;;
840;SDS011;406;48.566;13.450;2022-11-09T07:17:37;9.60;;;6.87;;
840;SDS011;406;48.566;13.450;2022-11-09T07:20:08;8.80;;;6.00;;
840;SDS011;406;48.566;13.450;2022-11-09T07:22:34;9.70;;;7.30;;
840;SDS011;406;48.566;13.450;2022-11-09T07:25:04;10.70;;;7.27;;
840;SDS011;406;48.566;13.450;2022-11-09T07:27:34;11.07;;;6.80;;
840;SDS011;406;48.566;13.450;2022-11-09T07:29:59;11.43;;;7.80;;
840;SDS011;406;48.566;13.450;2022-11-09T07:32:25;9.13;;;6.43;;
840;SDS011;406;48.566;13.450;2022-11-09T07:34:51;8.57;;;6.23;;
840;SDS011;406;48.566;13.450;2022-11-09T07:37:16;10.13;;;7.03;;
840;SDS011;406;48.566;13.450;2022-11-09T07:39:42;8.37;;;6.00;;
840;SDS011;406;48.566;13.450;2022-11-09T07:42:07;10.37;;;7.30;;
840;SDS011;406;48.566;13.450;2022-11-09T07:44:34;6.53;;;5.83;;
840;SDS011;406;48.566;13.450;2022-11-09T07:47:00;13.40;;;6.30;;
840;SDS011;406;48.566;13.450;2022-11-09T07:49:25;9.73;;;6.37;;
840;SDS011;406;48.566;13.450;2022-11-09T07:51:51;8.67;;;6.00;;
840;SDS011;406;48.566;13.450;2022-11-09T07:54:16;7.97;;;6.00;;
840;SDS011;406;48.566;13.450;2022-11-09T07:56:41;8.57;;;5.50;;
840;SDS011;406;48.566;13.450;2022-11-09T07:59:07;6.43;;;5.00;;
840;SDS011;406;48.566;13.450;2022-11-09T08:01:33;8.20;;;5.80;;
840;SDS011;406;48.566;13.450;2022-11-09T08:03:58;10.43;;;6.30;;
840;SDS011;406;48.566;13.450;2022-11-09T08:06:23;8.43;;;5.33;;
840;SDS011;406;48.566;13.450;2022-11-09T08:08:55;8.10;;;5.73;;
840;SDS011;406;48.566;13.450;2022-11-09T08:11:21;6.00;;;4.10;;
840;SDS011;406;48.566;13.450;2022-11-09T08:13:47;5.53;;;4.00;;
840;SDS011;406;48.566;13.450;2022-11-09T08:16:13;5.63;;;4.47;;
840;SDS011;406;48.566;13.450;2022-11-09T08:18:38;6.33;;;4.70;;
840;SDS011;406;48.566;13.450;2022-11-09T08:21:04;5.03;;;4.53;;
840;SDS011;406;48.566;13.450;2022-11-09T08:23:30;5.77;;;4.73;;
840;SDS011;406;48.566;13.450;2022-11-09T08:25:55;6.87;;;4.80;;
840;SDS011;406;48.566;13.450;2022-11-09T08:28:21;8.03;;;4.80;;
840;SDS011;406;48.566;13.450;2022-11-09T08:30:57;6.37;;;4.57;;
840;SDS011;406;48.566;13.450;2022-11-09T08:33:24;10.10;;;5.67;;
840;SDS011;406;48.566;13.450;2022-11-09T08:35:52;7.70;;;5.53;;
840;SDS011;406;48.566;13.450;2022-11-09T08:38:17;6.43;;;5.83;;
840;SDS011;406;48.566;13.450;2022-11-09T08:40:43;5.73;;;4.77;;
840;SDS011;406;48.566;13.450;2022-11-09T08:43:08;6.27;;;4.67;;
840;SDS011;406;48.566;13.450;2022-11-09T08:45:35;5.50;;;4.23;;
840;SDS011;406;48.566;13.450;2022-11-09T08:48:02;6.07;;;4.53;;
840;SDS011;406;48.566;13.450;2022-11-09T08:50:28;5.87;;;4.97;;
840;SDS011;406;48.566;13.450;2022-11-09T08:52:54;6.53;;;4.83;;
840;SDS011;406;48.566;13.450;2022-11-09T08:55:20;6.27;;;4.77;;
840;SDS011;406;48.566;13.450;2022-11-09T08:57:46;6.30;;;4.90;;
840;SDS011;406;48.566;13.450;2022-11-09T09:00:13;6.00;;;4.57;;
840;SDS011;406;48.566;13.450;2022-11-09T09:02:39;5.37;;;4.10;;
840;SDS011;406;48.566;13.450;2022-11-09T09:05:05;5.30;;;4.33;;
840;SDS011;406;48.566;13.450;2022-11-09T09:07:31;7.17;;;5.47;;
840;SDS011;406;48.566;13.450;2022-11-09T09:09:56;7.50;;;4.37;;
840;SDS011;406;48.566;13.450;2022-11-09T09:12:22;7.20;;;4.50;;
840;SDS011;406;48.566;13.450;2022-11-09T09:14:47;5.33;;;4.63;;
840;SDS011;406;48.566;13.450;2022-11-09T09:17:14;9.13;;;5.57;;
840;SDS011;406;48.566;13.450;2022-11-09T09:19:39;6.07;;;5.07;;
840;SDS011;406;48.566;13.450;2022-11-09T09:22:04;6.57;;;5.60;;
840;SDS011;406;48.566;13.450;2022-11-09T09:24:30;7.27;;;5.23;;
840;SDS011;406;48.566;13.450;2022-11-09T09:26:55;6.33;;;5.70;;
840;SDS011;406;48.566;13.450;2022-11-09T09:29:21;7.20;;;5.43;;
840;SDS011;406;48.566;13.450;2022-11-09T09:31:46;9.90;;;7.20;;
840;SDS011;406;48.566;13.450;2022-11-09T09:34:12;12.30;;;8.23;;
840;SDS011;406;48.566;13.450;2022-11-09T09:36:37;11.37;;;7.23;;
840;SDS011;406;48.566;13.450;2022-11-09T09:39:03;15.10;;;7.90;;
840;SDS011;406;48.566;13.450;2022-11-09T09:41:34;12.10;;;8.03;;
840;SDS011;406;48.566;13.450;2022-11-09T09:46:43;11.07;;;7.60;;
840;SDS011;406;48.566;13.450;2022-11-09T09:49:13;10.83;;;7.10;;
840;SDS011;406;48.566;13.450;2022-11-09T09:51:41;8.37;;;5.90;;
840;SDS011;406;48.566;13.450;2022-11-09T09:54:16;8.10;;;6.30;;
840;SDS011;406;48.566;13.450;2022-11-09T09:56:45;9.20;;;6.17;;
840;SDS011;406;48.566;13.450;2022-11-09T10:02:27;11.07;;;6.93;;
840;SDS011;406;48.566;13.450;2022-11-09T10:04:53;10.87;;;7.07;;
840;SDS011;406;48.566;13.450;2022-11-09T10:15:48;11.10;;;8.73;;
840;SDS011;406;48.566;13.450;2022-11-09T10:21:34;12.27;;;8.67;;
840;SDS011;406;48.566;13.450;2022-11-09T10:24:26;9.90;;;7.40;;
840;SDS011;406;48.566;13.450;2022-11-09T10:27:23;10.23;;;7.77;;
840;SDS011;406;48.566;13.450;2022-11-09T10:29:59;11.77;;;7.90;;
840;SDS011;406;48.566;13.450;2022-11-09T10:32:27;9.67;;;7.77;;
840;SDS011;406;48.566;13.450;2022-11-09T10:35:14;10.57;;;8.30;;
840;SDS011;406;48.566;13.450;2022-11-09T10:37:50;12.70;;;8.83;;
840;SDS011;406;48.566;13.450;2022-11-09T10:40:26;11.03;;;8.30;;
840;SDS011;406;48.566;13.450;2022-11-09T10:43:13;9.77;;;6.93;;
840;SDS011;406;48.566;13.450;2022-11-09T10:46:07;13.97;;;8.67;;
840;SDS011;406;48.566;13.450;2022-11-09T10:48:52;19.70;;;8.57;;
840;SDS011;406;48.566;13.450;2022-11-09T10:54:22;12.67;;;9.00;;
840;SDS011;406;48.566;13.450;2022-11-09T10:59:55;12.37;;;8.60;;
840;SDS011;406;48.566;13.450;2022-11-09T11:02:41;12.40;;;9.00;;
840;SDS011;406;48.566;13.450;2022-11-09T11:05:28;14.23;;;8.67;;
840;SDS011;406;48.566;13.450;2022-11-09T11:08:19;13.10;;;8.47;;
840;SDS011;406;48.566;13.450;2022-11-09T11:11:12;12.10;;;9.13;;
840;SDS011;406;48.566;13.450;2022-11-09T11:14:05;12.93;;;9.03;;
840;SDS011;406;48.566;13.450;2022-11-09T11:17:23;10.70;;;8.27;;
840;SDS011;406;48.566;13.450;2022-11-09T11:20:28;11.20;;;8.43;;
840;SDS011;406;48.566;13.450;2022-11-09T11:23:16;16.30;;;9.80;;
840;SDS011;406;48.566;13.450;2022-11-09T11:26:19;11.53;;;7.60;;
840;SDS011;406;48.566;13.450;2022-11-09T11:32:16;10.33;;;8.63;;
840;SDS011;406;48.566;13.450;2022-11-09T11:35:11;10.70;;;8.13;;
840;SDS011;406;48.566;13.450;2022-11-09T11:41:46;12.40;;;8.53;;
840;SDS011;406;48.566;13.450;2022-11-09T11:53:39;12.97;;;8.90;;
840;SDS011;406;48.566;13.450;2022-11-09T11:59:45;12.03;;;9.33;;
840;SDS011;406;48.566;13.450;2022-11-09T12:08:56;10.93;;;8.47;;
840;SDS011;406;48.566;13.450;2022-11-09T12:14:59;9.27;;;7.97;;
840;SDS011;406;48.566;13.450;2022-11-09T12:30:16;12.37;;;8.63;;
840;SDS011;406;48.566;13.450;2022-11-09T12:33:06;9.83;;;8.10;;
840;SDS011;406;48.566;13.450;2022-11-09T12:36:00;10.20;;;8.00;;
840;SDS011;406;48.566;13.450;2022-11-09T12:39:00;12.03;;;8.30;;
840;SDS011;406;48.566;13.450;2022-11-09T12:41:48;12.17;;;9.10;;
840;SDS011;406;48.566;13.450;2022-11-09T12:44:36;14.80;;;9.60;;
840;SDS011;406;48.566;13.450;2022-11-09T12:47:27;15.17;;;11.33;;
840;SDS011;406;48.566;13.450;2022-11-09T12:50:17;13.20;;;9.30;;
840;SDS011;406;48.566;13.450;2022-11-09T12:53:03;17.80;;;10.70;;
840;SDS011;406;48.566;13.450;2022-11-09T12:58:49;13.53;;;10.20;;
840;SDS011;406;48.566;13.450;2022-11-09T13:04:18;14.30;;;9.90;;
840;SDS011;406;48.566;13.450;2022-11-09T13:09:53;12.63;;;9.90;;
840;SDS011;406;48.566;13.450;2022-11-09T13:12:38;15.90;;;10.33;;
840;SDS011;406;48.566;13.450;2022-11-09T13:15:24;17.53;;;11.30;;
840;SDS011;406;48.566;13.450;2022-11-09T13:18:23;13.87;;;10.30;;
840;SDS011;406;48.566;13.450;2022-11-09T13:24:47;13.07;;;9.27;;
840;SDS011;406;48.566;13.450;2022-11-09T13:45:26;10.00;;;8.10;;
840;SDS011;406;48.566;13.450;2022-11-09T13:48:31;10.97;;;8.63;;
840;SDS011;406;48.566;13.450;2022-11-09T13:57:25;10.70;;;7.50;;
840;SDS011;406;48.566;13.450;2022-11-09T14:00:15;9.90;;;7.50;;
840;SDS011;406;48.566;13.450;2022-11-09T14:03:24;13.87;;;8.87;;
840;SDS011;406;48.566;13.450;2022-11-09T14:06:09;10.60;;;8.20;;
840;SDS011;406;48.566;13.450;2022-11-09T14:08:54;11.50;;;8.50;;
840;SDS011;406;48.566;13.450;2022-11-09T14:14:50;10.77;;;8.70;;
840;SDS011;406;48.566;13.450;2022-11-09T14:21:03;8.37;;;7.10;;
840;SDS011;406;48.566;13.450;2022-11-09T14:23:53;9.87;;;7.33;;
840;SDS011;406;48.566;13.450;2022-11-09T14:26:37;11.40;;;9.07;;
840;SDS011;406;48.566;13.450;2022-11-09T14:29:22;10.63;;;8.00;;
840;SDS011;406;48.566;13.450;2022-11-09T14:38:24;11.63;;;9.03;;
840;SDS011;406;48.566;13.450;2022-11-09T14:41:20;13.57;;;9.73;;
840;SDS011;406;48.566;13.450;2022-11-09T14:44:12;11.80;;;8.77;;
840;SDS011;406;48.566;13.450;2022-11-09T14:47:13;11.73;;;8.70;;
840;SDS011;406;48.566;13.450;2022-11-09T14:49:59;11.50;;;8.63;;
840;SDS011;406;48.566;13.450;2022-11-09T14:52:43;10.47;;;8.37;;
840;SDS011;406;48.566;13.450;2022-11-09T14:55:27;14.20;;;9.57;;
840;SDS011;406;48.566;13.450;2022-11-09T14:58:12;10.93;;;8.50;;
840;SDS011;406;48.566;13.450;2022-11-09T15:01:07;11.53;;;8.27;;
840;SDS011;406;48.566;13.450;2022-11-09T15:07:02;12.13;;;8.73;;
840;SDS011;406;48.566;13.450;2022-11-09T15:09:48;12.40;;;8.87;;
840;SDS011;406;48.566;13.450;2022-11-09T15:12:34;12.50;;;8.77;;
840;SDS011;406;48.566;13.450;2022-11-09T15:15:20;15.67;;;10.87;;
840;SDS011;406;48.566;13.450;2022-11-09T15:18:13;15.93;;;12.03;;
840;SDS011;406;48.566;13.450;2022-11-09T15:21:19;15.03;;;9.93;;
840;SDS011;406;48.566;13.450;2022-11-09T15:24:16;13.73;;;10.67;;
840;SDS011;406;48.566;13.450;2022-11-09T15:27:01;17.90;;;13.10;;
840;SDS011;406;48.566;13.450;2022-11-09T15:29:45;17.03;;;11.63;;
840;SDS011;406;48.566;13.450;2022-11-09T15:32:33;17.37;;;11.77;;
840;SDS011;406;48.566;13.450;2022-11-09T15:35:22;15.30;;;10.60;;
840;SDS011;406;48.566;13.450;2022-11-09T15:38:25;21.10;;;15.03;;
840;SDS011;406;48.566;13.450;2022-11-09T15:41:11;16.73;;;11.27;;
840;SDS011;406;48.566;13.450;2022-11-09T15:44:03;16.40;;;11.90;;
840;SDS011;406;48.566;13.450;2022-11-09T15:46:49;19.73;;;13.50;;
840;SDS011;406;48.566;13.450;2022-11-09T15:49:34;18.50;;;12.77;;
840;SDS011;406;48.566;13.450;2022-11-09T15:52:18;18.40;;;12.80;;
840;SDS011;406;48.566;13.450;2022-11-09T15:55:02;19.50;;;13.23;;
840;SDS011;406;48.566;13.450;2022-11-09T15:57:47;19.37;;;14.07;;
840;SDS011;406;48.566;13.450;2022-11-09T16:00:32;19.77;;;13.33;;
840;SDS011;406;48.566;13.450;2022-11-09T16:03:17;16.93;;;12.00;;
840;SDS011;406;48.566;13.450;2022-11-09T16:06:01;23.27;;;13.23;;
840;SDS011;406;48.566;13.450;2022-11-09T16:08:46;16.17;;;10.53;;
840;SDS011;406;48.566;13.450;2022-11-09T16:11:31;16.17;;;11.60;;
840;SDS011;406;48.566;13.450;2022-11-09T16:14:15;15.87;;;11.37;;
840;SDS011;406;48.566;13.450;2022-11-09T16:17:00;20.57;;;13.00;;
840;SDS011;406;48.566;13.450;2022-11-09T16:19:44;16.33;;;11.07;;
840;SDS011;406;48.566;13.450;2022-11-09T16:22:31;21.30;;;10.53;;
840;SDS011;406;48.566;13.450;2022-11-09T16:25:16;19.13;;;12.03;;
840;SDS011;406;48.566;13.450;2022-11-09T16:28:00;17.83;;;11.20;;
840;SDS011;406;48.566;13.450;2022-11-09T16:30:44;19.27;;;12.03;;
840;SDS011;406;48.566;13.450;2022-11-09T16:33:28;17.77;;;11.60;;
840;SDS011;406;48.566;13.450;2022-11-09T16:36:14;17.43;;;10.80;;
840;SDS011;406;48.566;13.450;2022-11-09T16:39:02;21.57;;;11.70;;
840;SDS011;406;48.566;13.450;2022-11-09T16:41:49;18.13;;;10.33;;
840;SDS011;406;48.566;13.450;2022-11-09T16:44:34;19.03;;;11.90;;
840;SDS011;406;48.566;13.450;2022-11-09T16:47:20;14.73;;;9.67;;
840;SDS011;406;48.566;13.450;2022-11-09T16:50:04;15.07;;;10.70;;
840;SDS011;406;48.566;13.450;2022-11-09T16:52:48;21.63;;;12.53;;
840;SDS011;406;48.566;13.450;2022-11-09T16:55:32;20.30;;;11.10;;
840;SDS011;406;48.566;13.450;2022-11-09T16:58:17;16.40;;;11.60;;
840;SDS011;406;48.566;13.450;2022-11-09T17:01:02;16.43;;;11.17;;
840;SDS011;406;48.566;13.450;2022-11-09T17:03:45;18.67;;;10.63;;
840;SDS011;406;48.566;13.450;2022-11-09T17:06:32;19.40;;;10.43;;
840;SDS011;406;48.566;13.450;2022-11-09T17:09:17;17.53;;;11.53;;
840;SDS011;406;48.566;13.450;2022-11-09T17:12:03;15.10;;;10.53;;
840;SDS011;406;48.566;13.450;2022-11-09T17:14:47;18.80;;;10.73;;
840;SDS011;406;48.566;13.450;2022-11-09T17:17:31;17.83;;;11.33;;
840;SDS011;406;48.566;13.450;2022-11-09T17:20:16;17.43;;;11.40;;
840;SDS011;406;48.566;13.450;2022-11-09T17:23:00;21.20;;;11.90;;
840;SDS011;406;48.566;13.450;2022-11-09T17:25:52;19.50;;;12.43;;
840;SDS011;406;48.566;13.450;2022-11-09T17:28:38;21.50;;;12.67;;
840;SDS011;406;48.566;13.450;2022-11-09T17:31:22;19.43;;;11.70;;
840;SDS011;406;48.566;13.450;2022-11-09T17:34:07;17.27;;;12.87;;
840;SDS011;406;48.566;13.450;2022-11-09T17:36:51;17.23;;;9.90;;
840;SDS011;406;48.566;13.450;2022-11-09T17:39:35;17.80;;;11.63;;
840;SDS011;406;48.566;13.450;2022-11-09T17:42:19;21.37;;;12.37;;
840;SDS011;406;48.566;13.450;2022-11-09T17:45:04;21.27;;;12.80;;
840;SDS011;406;48.566;13.450;2022-11-09T17:47:49;21.80;;;13.17;;
840;SDS011;406;48.566;13.450;2022-11-09T17:50:33;19.53;;;11.73;;
840;SDS011;406;48.566;13.450;2022-11-09T17:53:17;25.23;;;14.27;;
840;SDS011;406;48.566;13.450;2022-11-09T17:56:01;23.10;;;14.30;;
840;SDS011;406;48.566;13.450;2022-11-09T17:58:45;23.47;;;12.67;;